METAR AND TAF INFORMATION
METAR FOR EHKD
ADDS - METARS form results

(2237 UTC 21 February 2020)
Data provider http://aviationweather.gov/metar/data/
 
METAR text: EHKD 212225Z AUTO 22023KT 190V250 9000 BR SCT016 SCT038 OVC120 09/06 Q1016 WHT
Conditions at: EHKD (DE KOOY (NAVY) , NL) observed 2225 UTC 21 February 2020
Temperature: 9.0°C (48°F)
Dewpoint: 6.0°C (43°F) [RH = 81%]
Pressure (altimeter): 30.00 inches Hg (1016.0 mb)
Winds: from the SW (220 degrees) at 26 MPH (23 knots; 11.8 m/s)
Visibility: 6 miles ( 9 km)
Ceiling: 12000 feet AGL
Clouds: scattered clouds at 1600 feet AGL
scattered clouds at 3800 feet AGL
overcast cloud deck at 12000 feet AGL
Weather: BR  (mist)

METAR text: EHKD 212214Z AUTO 22023G33KT 190V250 9000 BR FEW019 SCT023 BKN037 08/06 Q1016 WHT
Conditions at: EHKD (DE KOOY (NAVY) , NL) observed 2214 UTC 21 February 2020
Temperature: 8.0°C (46°F)
Dewpoint: 6.0°C (43°F) [RH = 87%]
Pressure (altimeter): 30.00 inches Hg (1016.0 mb)
Winds: from the SW (220 degrees) at 26 MPH (23 knots; 11.8 m/s)
gusting to 38 MPH (33 knots; 17.0 m/s)
Visibility: 6 miles ( 9 km)
Ceiling: 3700 feet AGL
Clouds: few clouds at 1900 feet AGL
scattered clouds at 2300 feet AGL
broken clouds at 3700 feet AGL
Weather: BR  (mist)

METAR text: EHKD 212155Z AUTO 22025KT 9000 BR OVC035 09/06 Q1017 BLU
Conditions at: EHKD (DE KOOY (NAVY) , NL) observed 2155 UTC 21 February 2020
Temperature: 9.0°C (48°F)
Dewpoint: 6.0°C (43°F) [RH = 81%]
Pressure (altimeter): 30.03 inches Hg (1017.0 mb)
Winds: from the SW (220 degrees) at 29 MPH (25 knots; 12.9 m/s)
Visibility: 6 miles ( 9 km)
Ceiling: 3500 feet AGL
Clouds: overcast cloud deck at 3500 feet AGL
Weather: BR  (mist)

Forecast for: EHKD (DE KOOY (NAVY) , NL)
Text: TAF EHKD 211348Z 2114/2202 22020G32KT 9999 FEW022
Forecast period: 1400 to 2300 UTC 21 February 2020
Forecast type: FROM: standard forecast or significant change
Winds: from the SW (220 degrees) at 23 MPH (20 knots; 10.3 m/s)
gusting to 37 MPH (32 knots; 16.5 m/s)
Visibility: 6 or more miles 10+ km)
Ceiling: at least 12,000 feet AGL
Clouds: few clouds at 2200 feet AGL
Weather: no significant weather forecast for this period
Text: PROB40
Forecast period: 1400 to 2200 UTC 21 February 2020
Forecast type: TEMPORARY: The following changes expected for less than half the time period
Visibility: missing
Ceiling: 1500 feet AGL
Clouds: broken clouds at 1500 feet AGL
Weather: no significant weather forecast for this period
Text: TEMPO 2114/2122 BKN015
Forecast period: 2200 UTC 21 February 2020 to 0200 UTC 22 February 2020
Forecast type: TEMPORARY: The following changes expected for less than half the time period
Visibility: missing
Ceiling: 1000 feet AGL
Clouds: broken clouds at 1000 feet AGL
Weather: no significant weather forecast for this period
Text: PROB40
Forecast period: 2300 UTC 21 February 2020 to 0200 UTC 22 February 2020
Forecast type: BECOMING: Conditions expected to become as follows by 0200 UTC 22 February 2020
Winds: from the SW (230 degrees) at 31 MPH (27 knots; 13.9 m/s)
gusting to 48 MPH (42 knots; 21.6 m/s)
Visibility: 6 or more miles 10+ km)
Ceiling: at least 12,000 feet AGL
Clouds: few clouds at 2200 feet AGL
Weather: no significant weather forecast for this period

 AIRPORT MAP

 RUNWAY INFORMATION
Runway 04 Runway length 4183 ft Runway width 98 ft
Runway elevation 3 ft Runway displaced threshold 804 ft Runway heading 34
Runway 22 Runway length 4183 ft Runway width 98 ft
Runway elevation 2 ft Runway displaced threshold 804 ft Runway heading 214

 AIRPORT FREQUENCIES
Type APP Name APP Frequency 119.1 MHZ
Type FSS Name FINAL Frequency 123.3 MHZ
Type GND Name GND Frequency 121.725 MHZ
Type TWR Name TWR Frequency 120.125 MHZ

 AIRPORT NEAR NAVIGATION AIDS
Type VOR-DME Name Den Helder Frequency 115550 KHZ